Terminal Aerodrome Forecast
Issued by NWS Binghamton, NY

Home | Current Version | Previous Version | Text Only | Print | Product List | Glossary On
Versions: 1 2 3 4 5 6 7 8 9 10 11 12 13 14 15 16 17 18 19 20 21 22 23 24 25
000
FTUS41 KBGM 131601 AAB
TAFBGM
TAF AMD
KBGM 131601Z 1316/1412 29015G25KT P6SM -SN OVC030
      TEMPO 1316/1317 2SM -SN BR BKN022
     FM132000 29014G25KT P6SM SCT035
     FM132300 28008KT P6SM SCT090
     FM140500 23006KT 1SM -SN OVC015
     FM140900 30004KT 5SM -SN OVC012=

USA.gov is the U.S. government's official web portal to all federal, state and local government web resources and services.